Time;durP1;ratioP1;P1;durP2;ratioP2;P2;SDS_P1;SDS_P2;PMS_P1;PMS_P2;Temp;Humidity;BMP_temperature;BMP_pressure;BME280_temperature;BME280_humidity;BME280_pressure;Samples;Min_cycle;Max_cycle;Signal;HPM_P1;HPM_P2
2022/06/01 00:00:08;;;;;;;1.70;0.90;;;;;;;;;;5079637;28;20443;-84
2022/06/01 00:02:35;;;;;;;2.13;0.90;;;;;;;;;;5080345;28;20048;-84
2022/06/01 00:05:00;;;;;;;1.27;1.10;;;;;;;;;;5079530;28;20028;-84
2022/06/01 00:07:26;;;;;;;1.98;1.10;;;;;;;;;;5078396;28;20052;-85
2022/06/01 00:09:54;;;;;;;1.52;1.00;;;;;;;;;;5080653;28;20060;-84
2022/06/01 00:12:20;;;;;;;1.70;0.80;;;;;;;;;;5080591;28;20441;-84
2022/06/01 00:14:46;;;;;;;1.30;1.00;;;;;;;;;;5078571;28;20024;-85
2022/06/01 00:17:11;;;;;;;1.70;1.10;;;;;;;;;;5078743;28;20143;-84
2022/06/01 00:19:37;;;;;;;1.80;1.00;;;;;;;;;;5080103;28;20044;-84
2022/06/01 00:22:12;;;;;;;1.40;1.02;;;;;;;;;;5080538;28;20043;-84
2022/06/01 00:24:41;;;;;;;1.25;1.00;;;;;;;;;;5078176;28;20123;-84
2022/06/01 00:27:08;;;;;;;1.60;1.10;;;;;;;;;;5081102;28;20101;-84
2022/06/01 00:29:34;;;;;;;1.77;1.08;;;;;;;;;;5079331;28;20028;-84
2022/06/01 00:31:59;;;;;;;1.63;1.08;;;;;;;;;;5079944;28;20032;-84
2022/06/01 00:34:26;;;;;;;1.98;1.10;;;;;;;;;;5079378;28;20035;-85
2022/06/01 00:36:51;;;;;;;1.10;0.90;;;;;;;;;;5080182;28;20111;-85
2022/06/01 00:39:17;;;;;;;2.65;1.00;;;;;;;;;;5078452;28;20452;-84
2022/06/01 00:41:42;;;;;;;3.42;1.20;;;;;;;;;;5078799;28;20091;-84
2022/06/01 00:44:07;;;;;;;2.60;1.15;;;;;;;;;;5079168;28;20047;-84
2022/06/01 00:46:33;;;;;;;4.03;1.05;;;;;;;;;;5080309;28;20100;-84
2022/06/01 00:49:05;;;;;;;1.10;0.90;;;;;;;;;;5079483;28;20052;-85
2022/06/01 00:51:30;;;;;;;1.33;1.00;;;;;;;;;;5079502;28;20489;-85
2022/06/01 00:53:57;;;;;;;3.67;1.10;;;;;;;;;;5079984;28;20051;-84
2022/06/01 00:56:34;;;;;;;1.35;1.10;;;;;;;;;;5078166;28;20040;-85
2022/06/01 00:59:04;;;;;;;1.67;1.20;;;;;;;;;;5079244;28;20374;-84
2022/06/01 01:01:31;;;;;;;1.17;1.08;;;;;;;;;;5079517;28;20047;-84
2022/06/01 01:03:59;;;;;;;1.17;0.90;;;;;;;;;;5078551;28;20025;-84
2022/06/01 01:06:26;;;;;;;2.35;1.00;;;;;;;;;;5060141;28;20036;-84
2022/06/01 01:08:52;;;;;;;1.27;1.00;;;;;;;;;;5079980;28;20154;-84
2022/06/01 01:11:25;;;;;;;1.20;1.00;;;;;;;;;;5078123;28;20089;-84
2022/06/01 01:13:52;;;;;;;1.02;0.93;;;;;;;;;;5079558;28;20416;-84
2022/06/01 01:16:20;;;;;;;1.27;1.10;;;;;;;;;;5078463;28;20048;-84
2022/06/01 01:18:46;;;;;;;3.90;1.00;;;;;;;;;;5078377;28;20481;-84
2022/06/01 01:21:28;;;;;;;1.25;0.93;;;;;;;;;;5078952;28;20036;-84
2022/06/01 01:23:53;;;;;;;1.30;0.85;;;;;;;;;;5078798;28;20021;-84
2022/06/01 01:26:22;;;;;;;1.55;1.05;;;;;;;;;;5078639;28;20036;-84
2022/06/01 01:28:47;;;;;;;2.38;1.08;;;;;;;;;;5078741;28;20039;-84
2022/06/01 01:31:19;;;;;;;1.50;1.05;;;;;;;;;;5079126;28;20068;-84
2022/06/01 01:33:46;;;;;;;1.35;1.10;;;;;;;;;;5078440;28;20028;-84
2022/06/01 01:36:13;;;;;;;1.10;1.00;;;;;;;;;;5078353;28;20024;-84
2022/06/01 01:38:45;;;;;;;2.50;1.30;;;;;;;;;;5077624;28;20036;-84
2022/06/01 01:41:42;;;;;;;1.50;1.00;;;;;;;;;;5077229;28;20044;-84
2022/06/01 01:44:11;;;;;;;1.40;1.10;;;;;;;;;;5068988;28;20037;-84
2022/06/01 01:46:38;;;;;;;1.90;1.10;;;;;;;;;;5077670;28;20052;-84
2022/06/01 01:49:03;;;;;;;1.13;1.00;;;;;;;;;;5077255;28;20503;-85
2022/06/01 01:51:30;;;;;;;1.50;1.10;;;;;;;;;;5078302;28;20040;-84
2022/06/01 01:53:59;;;;;;;1.67;1.05;;;;;;;;;;5077910;28;20120;-84
2022/06/01 01:56:52;;;;;;;1.45;1.08;;;;;;;;;;5078958;28;20090;-84
2022/06/01 01:59:31;;;;;;;1.10;1.00;;;;;;;;;;5059950;28;20064;-84
2022/06/01 02:02:19;;;;;;;1.98;1.10;;;;;;;;;;5078175;28;20098;-84
2022/06/01 02:08:18;;;;;;;1.45;1.20;;;;;;;;;;5077796;28;20556;-84
2022/06/01 02:13:30;;;;;;;1.05;0.95;;;;;;;;;;5078792;28;20040;-84
2022/06/01 02:15:59;;;;;;;2.65;1.00;;;;;;;;;;5077209;28;20105;-84
2022/06/01 02:18:30;;;;;;;2.25;1.10;;;;;;;;;;5077454;28;20123;-84
2022/06/01 02:21:02;;;;;;;1.58;1.08;;;;;;;;;;5077938;28;20105;-84
2022/06/01 02:23:31;;;;;;;2.78;1.00;;;;;;;;;;5077227;28;20038;-85
2022/06/01 02:25:59;;;;;;;4.20;1.10;;;;;;;;;;5076109;28;20041;-84
2022/06/01 02:28:25;;;;;;;1.40;1.13;;;;;;;;;;5075512;28;20056;-84
2022/06/01 02:30:52;;;;;;;1.25;1.15;;;;;;;;;;5076705;28;20447;-84
2022/06/01 02:33:24;;;;;;;1.73;1.05;;;;;;;;;;5077387;28;20040;-84
2022/06/01 02:35:53;;;;;;;1.52;1.10;;;;;;;;;;5077015;28;20115;-84
2022/06/01 02:38:23;;;;;;;2.22;1.00;;;;;;;;;;5078045;28;20043;-84
2022/06/01 02:40:49;;;;;;;2.75;1.10;;;;;;;;;;5077255;28;20484;-84
2022/06/01 02:43:14;;;;;;;2.83;1.10;;;;;;;;;;5076789;28;20021;-84
2022/06/01 02:45:42;;;;;;;3.08;1.17;;;;;;;;;;5077297;28;20036;-84
2022/06/01 02:48:08;;;;;;;2.10;1.15;;;;;;;;;;5078413;28;20041;-84
2022/06/01 02:50:35;;;;;;;1.20;1.10;;;;;;;;;;5076126;28;20040;-85
2022/06/01 02:53:01;;;;;;;2.08;1.25;;;;;;;;;;5077564;28;20028;-84
2022/06/01 02:55:28;;;;;;;2.33;1.20;;;;;;;;;;5075342;28;20045;-85
2022/06/01 02:57:55;;;;;;;1.70;1.20;;;;;;;;;;5078043;28;20059;-84
2022/06/01 03:00:26;;;;;;;4.57;1.10;;;;;;;;;;5077962;28;20036;-84
2022/06/01 03:02:55;;;;;;;1.80;1.23;;;;;;;;;;5077522;28;20039;-84
2022/06/01 03:05:25;;;;;;;1.75;1.10;;;;;;;;;;5074808;28;20158;-84
2022/06/01 03:07:52;;;;;;;1.50;1.10;;;;;;;;;;5076212;28;20098;-85
2022/06/01 03:10:18;;;;;;;1.77;1.20;;;;;;;;;;5059820;28;20039;-85
2022/06/01 03:12:43;;;;;;;2.95;1.23;;;;;;;;;;5077335;28;20128;-84
2022/06/01 03:15:11;;;;;;;1.58;1.20;;;;;;;;;;5076387;28;20064;-84
2022/06/01 03:17:36;;;;;;;1.75;1.20;;;;;;;;;;5077448;28;20044;-84
2022/06/01 03:20:07;;;;;;;1.42;1.20;;;;;;;;;;5077267;28;20125;-85
2022/06/01 03:22:38;;;;;;;3.60;1.20;;;;;;;;;;5076423;28;20588;-85
2022/06/01 03:25:08;;;;;;;2.35;1.10;;;;;;;;;;5076415;28;20032;-84
2022/06/01 03:27:34;;;;;;;2.20;1.20;;;;;;;;;;5077315;28;20174;-84
2022/06/01 03:30:00;;;;;;;2.38;1.40;;;;;;;;;;5077058;28;20024;-85
2022/06/01 03:32:25;;;;;;;2.78;1.15;;;;;;;;;;5076890;28;20032;-84
2022/06/01 03:34:51;;;;;;;3.58;1.27;;;;;;;;;;5074946;28;20031;-84
2022/06/01 03:37:17;;;;;;;1.92;1.30;;;;;;;;;;5076941;28;20075;-84
2022/06/01 03:39:42;;;;;;;1.25;1.10;;;;;;;;;;5077536;28;20036;-84
2022/06/01 03:42:08;;;;;;;1.85;1.08;;;;;;;;;;5079436;28;20040;-84
2022/06/01 03:47:17;;;;;;;1.98;1.10;;;;;;;;;;5080749;28;20416;-84
2022/06/01 03:49:43;;;;;;;1.50;1.20;;;;;;;;;;5079689;28;20020;-84
2022/06/01 03:52:10;;;;;;;5.30;1.30;;;;;;;;;;5080249;28;20028;-83
2022/06/01 03:54:36;;;;;;;1.40;1.25;;;;;;;;;;5080184;28;20036;-85
2022/06/01 03:57:03;;;;;;;1.58;1.25;;;;;;;;;;5079786;28;20067;-84
2022/06/01 03:59:30;;;;;;;4.35;1.50;;;;;;;;;;5079611;28;20765;-84
2022/06/01 04:01:59;;;;;;;2.33;1.88;;;;;;;;;;5080310;28;20036;-84
2022/06/01 04:04:24;;;;;;;4.38;1.35;;;;;;;;;;5078468;28;20417;-84
2022/06/01 04:06:50;;;;;;;1.30;1.20;;;;;;;;;;5079426;28;20511;-84
2022/06/01 04:09:15;;;;;;;1.58;1.20;;;;;;;;;;5079514;28;20036;-84
2022/06/01 04:11:41;;;;;;;1.90;1.40;;;;;;;;;;5080468;28;20036;-84
2022/06/01 04:14:07;;;;;;;2.95;1.40;;;;;;;;;;5079105;28;20035;-83
2022/06/01 04:16:32;;;;;;;4.20;1.38;;;;;;;;;;5078768;28;20036;-84
2022/06/01 04:18:58;;;;;;;1.10;1.00;;;;;;;;;;5080287;28;20036;-84
2022/06/01 04:21:25;;;;;;;5.65;2.60;;;;;;;;;;5080912;28;20033;-84
2022/06/01 04:23:51;;;;;;;1.65;1.30;;;;;;;;;;5078568;28;20043;-84
2022/06/01 04:26:17;;;;;;;2.15;1.25;;;;;;;;;;5079558;28;20428;-84
2022/06/01 04:28:46;;;;;;;3.47;1.08;;;;;;;;;;5078798;28;20060;-84
2022/06/01 04:31:11;;;;;;;1.85;1.20;;;;;;;;;;5078717;28;20063;-84
2022/06/01 04:33:42;;;;;;;2.25;1.20;;;;;;;;;;5079446;28;20029;-84
2022/06/01 04:36:08;;;;;;;1.35;1.20;;;;;;;;;;5079944;28;20028;-84
2022/06/01 04:38:33;;;;;;;2.95;1.20;;;;;;;;;;5079441;28;20170;-84
2022/06/01 04:40:59;;;;;;;2.05;1.10;;;;;;;;;;5078102;28;20036;-84
2022/06/01 04:43:24;;;;;;;1.73;1.20;;;;;;;;;;5080186;28;20032;-84
2022/06/01 04:45:51;;;;;;;1.48;1.23;;;;;;;;;;5079667;28;20036;-84
2022/06/01 04:48:17;;;;;;;1.30;1.20;;;;;;;;;;5079915;28;20052;-84
2022/06/01 04:50:43;;;;;;;1.48;1.30;;;;;;;;;;5079265;28;20035;-84
2022/06/01 04:53:13;;;;;;;2.78;1.30;;;;;;;;;;5079258;28;20485;-84
2022/06/01 04:55:43;;;;;;;1.67;1.35;;;;;;;;;;5077564;28;20477;-84
2022/06/01 04:58:10;;;;;;;1.50;1.10;;;;;;;;;;5078277;28;20546;-84
2022/06/01 05:00:36;;;;;;;2.72;1.45;;;;;;;;;;5079259;28;20485;-84
2022/06/01 05:03:01;;;;;;;1.77;1.20;;;;;;;;;;5079516;28;20036;-84
2022/06/01 05:05:28;;;;;;;1.23;1.13;;;;;;;;;;5078671;28;20047;-84
2022/06/01 05:07:53;;;;;;;1.27;1.17;;;;;;;;;;5079540;28;20044;-83
2022/06/01 05:10:21;;;;;;;1.92;1.38;;;;;;;;;;5079676;28;20040;-82
2022/06/01 05:12:46;;;;;;;1.67;1.20;;;;;;;;;;5079293;28;20409;-84
2022/06/01 05:15:12;;;;;;;2.25;1.30;;;;;;;;;;5079741;28;20033;-83
2022/06/01 05:17:38;;;;;;;1.40;1.13;;;;;;;;;;5079344;28;20032;-84
2022/06/01 05:20:04;;;;;;;1.88;1.30;;;;;;;;;;5079102;28;20035;-83
2022/06/01 05:22:30;;;;;;;2.63;1.10;;;;;;;;;;5077620;28;20063;-84
2022/06/01 05:24:55;;;;;;;3.03;1.40;;;;;;;;;;5078091;28;20481;-84
2022/06/01 05:27:21;;;;;;;1.83;1.30;;;;;;;;;;5078257;28;20085;-84
2022/06/01 05:29:46;;;;;;;1.30;1.20;;;;;;;;;;5077856;28;20055;-84
2022/06/01 05:32:12;;;;;;;1.67;1.20;;;;;;;;;;5078280;28;20040;-83
2022/06/01 05:34:38;;;;;;;3.22;1.25;;;;;;;;;;5076820;28;20060;-84
2022/06/01 05:37:03;;;;;;;2.65;1.25;;;;;;;;;;5077566;28;20134;-84
2022/06/01 05:39:29;;;;;;;3.25;1.73;;;;;;;;;;5076997;28;20048;-85
2022/06/01 05:41:54;;;;;;;1.75;1.15;;;;;;;;;;5076778;28;20060;-86
2022/06/01 05:44:20;;;;;;;2.03;1.00;;;;;;;;;;5076025;28;20491;-85
2022/06/01 05:46:45;;;;;;;4.53;1.08;;;;;;;;;;5076761;28;20086;-86
2022/06/01 05:49:13;;;;;;;1.10;1.00;;;;;;;;;;5076703;28;20033;-85
2022/06/01 05:51:38;;;;;;;2.30;1.10;;;;;;;;;;5076799;28;20043;-85
2022/06/01 05:54:04;;;;;;;2.13;1.00;;;;;;;;;;5074001;28;20036;-85
2022/06/01 05:56:30;;;;;;;1.55;1.00;;;;;;;;;;5074856;28;20128;-85
2022/06/01 05:58:55;;;;;;;1.55;0.90;;;;;;;;;;5074706;28;20048;-86
2022/06/01 06:01:24;;;;;;;3.30;0.90;;;;;;;;;;5076396;28;20040;-85
2022/06/01 06:03:50;;;;;;;1.27;0.98;;;;;;;;;;5075682;28;20055;-84
2022/06/01 06:06:16;;;;;;;1.45;0.95;;;;;;;;;;5073393;28;20051;-85
2022/06/01 06:08:55;;;;;;;1.92;1.05;;;;;;;;;;5075950;28;20481;-86
2022/06/01 06:11:23;;;;;;;1.75;1.00;;;;;;;;;;5076464;28;20074;-85
2022/06/01 06:13:48;;;;;;;1.92;1.48;;;;;;;;;;5079018;28;20063;-86
2022/06/01 06:16:16;;;;;;;2.92;2.13;;;;;;;;;;5059592;28;20036;-86
2022/06/01 06:18:41;;;;;;;3.15;1.30;;;;;;;;;;5076474;28;20035;-86
2022/06/01 06:21:07;;;;;;;1.55;1.30;;;;;;;;;;5074966;28;20040;-85
2022/06/01 06:23:33;;;;;;;3.00;1.88;;;;;;;;;;5076604;28;20064;-87
2022/06/01 06:25:59;;;;;;;2.50;1.90;;;;;;;;;;5076672;28;20041;-87
2022/06/01 06:28:25;;;;;;;2.47;1.65;;;;;;;;;;5077111;28;20040;-87
2022/06/01 06:30:51;;;;;;;2.60;1.70;;;;;;;;;;5078010;28;20039;-87
2022/06/01 06:33:17;;;;;;;1.45;1.20;;;;;;;;;;5078611;28;20045;-87
2022/06/01 06:35:44;;;;;;;2.35;1.13;;;;;;;;;;5078815;28;20028;-87
2022/06/01 06:38:09;;;;;;;1.30;1.17;;;;;;;;;;5077636;28;20048;-87
2022/06/01 06:40:35;;;;;;;1.20;1.10;;;;;;;;;;5076695;28;20032;-86
2022/06/01 06:43:00;;;;;;;1.40;1.20;;;;;;;;;;5076755;28;20098;-86
2022/06/01 06:45:26;;;;;;;1.75;1.00;;;;;;;;;;5076287;28;20016;-86
2022/06/01 06:47:51;;;;;;;2.85;1.10;;;;;;;;;;5077114;28;20501;-86
2022/06/01 06:50:19;;;;;;;1.13;0.93;;;;;;;;;;5076387;28;20117;-86
2022/06/01 06:52:44;;;;;;;1.63;0.93;;;;;;;;;;5076577;28;20504;-85
2022/06/01 06:55:10;;;;;;;2.17;1.00;;;;;;;;;;5066145;28;20036;-84
2022/06/01 06:57:36;;;;;;;2.72;1.50;;;;;;;;;;5088394;28;20036;-84
2022/06/01 07:00:04;;;;;;;1.27;1.08;;;;;;;;;;5095175;28;20112;-84
2022/06/01 07:02:29;;;;;;;5.10;1.00;;;;;;;;;;5102073;28;20038;-84
2022/06/01 07:04:56;;;;;;;0.95;0.90;;;;;;;;;;5088740;28;20066;-85
2022/06/01 07:07:21;;;;;;;2.25;0.93;;;;;;;;;;5097695;28;20027;-86
2022/06/01 07:09:47;;;;;;;1.00;0.82;;;;;;;;;;5101446;28;20504;-84
2022/06/01 07:12:12;;;;;;;1.33;0.80;;;;;;;;;;5107906;28;20028;-84
2022/06/01 07:14:38;;;;;;;2.17;1.00;;;;;;;;;;5099390;28;20032;-85
2022/06/01 07:17:04;;;;;;;1.80;1.00;;;;;;;;;;5115221;28;20028;-85
2022/06/01 07:19:29;;;;;;;1.35;1.00;;;;;;;;;;5113563;28;20065;-85
2022/06/01 07:21:55;;;;;;;1.13;0.85;;;;;;;;;;5097112;28;20146;-85
2022/06/01 07:24:21;;;;;;;1.30;0.90;;;;;;;;;;5114428;28;20472;-85
2022/06/01 07:26:48;;;;;;;1.92;0.90;;;;;;;;;;5113225;28;20044;-84
2022/06/01 07:29:15;;;;;;;4.32;1.40;;;;;;;;;;5114033;28;20036;-85
2022/06/01 07:31:41;;;;;;;1.77;1.00;;;;;;;;;;5112629;28;20040;-85
2022/06/01 07:34:07;;;;;;;1.10;1.00;;;;;;;;;;5113849;28;20047;-84
2022/06/01 07:36:34;;;;;;;2.58;1.50;;;;;;;;;;5105290;28;20032;-85
2022/06/01 07:44:33;;;;;;;4.00;1.42;;;;;;;;;;5100808;28;20036;-87
2022/06/01 07:46:58;;;;;;;3.97;1.20;;;;;;;;;;5098455;28;20053;-86
2022/06/01 07:49:25;;;;;;;2.60;1.20;;;;;;;;;;5089739;28;20078;-85
2022/06/01 07:51:51;;;;;;;1.58;1.20;;;;;;;;;;5092520;28;20120;-85
2022/06/01 07:54:17;;;;;;;1.60;0.82;;;;;;;;;;5091037;28;20043;-85
2022/06/01 07:56:43;;;;;;;3.00;1.10;;;;;;;;;;5087517;28;20392;-87
2022/06/01 07:59:09;;;;;;;10.50;1.20;;;;;;;;;;5097799;28;20043;-87
2022/06/01 08:01:36;;;;;;;2.60;1.10;;;;;;;;;;5106567;28;20533;-84
2022/06/01 08:04:03;;;;;;;1.42;0.95;;;;;;;;;;5094626;28;20031;-86
2022/06/01 08:06:30;;;;;;;2.60;1.08;;;;;;;;;;5097412;28;20033;-85
2022/06/01 08:08:56;;;;;;;1.88;0.98;;;;;;;;;;5092875;28;20024;-85
2022/06/01 08:13:06;;;;;;;5.55;1.30;;;;;;;;;;5088401;28;20039;-86
2022/06/01 08:14:12;;;;;;;3.28;1.23;;;;;;;;;;5089017;28;20051;-86
2022/06/01 08:16:38;;;;;;;2.88;1.20;;;;;;;;;;5098832;28;20047;-86
2022/06/01 08:19:06;;;;;;;1.60;1.10;;;;;;;;;;5104366;28;20369;-85
2022/06/01 08:21:33;;;;;;;3.15;1.20;;;;;;;;;;5102210;28;20036;-85
2022/06/01 08:24:06;;;;;;;2.60;1.20;;;;;;;;;;5099226;28;20024;-85
2022/06/01 08:26:39;;;;;;;2.00;1.30;;;;;;;;;;5095513;28;20063;-86
2022/06/01 08:29:04;;;;;;;1.75;1.30;;;;;;;;;;5096849;28;20123;-86
2022/06/01 08:31:31;;;;;;;4.60;1.40;;;;;;;;;;5091974;28;20028;-86
2022/06/01 08:33:58;;;;;;;2.17;1.25;;;;;;;;;;5098996;28;20032;-85
2022/06/01 08:36:24;;;;;;;2.15;1.27;;;;;;;;;;5089767;28;20072;-85
2022/06/01 08:38:49;;;;;;;4.03;1.50;;;;;;;;;;5097225;28;20029;-85
2022/06/01 08:41:17;;;;;;;4.53;1.30;;;;;;;;;;5097720;28;20024;-86
2022/06/01 08:43:50;;;;;;;1.83;1.27;;;;;;;;;;5096518;28;20040;-86
2022/06/01 08:46:17;;;;;;;4.27;1.27;;;;;;;;;;5088262;28;20124;-86
2022/06/01 08:48:47;;;;;;;3.25;1.30;;;;;;;;;;5091979;28;20020;-87
2022/06/01 08:51:13;;;;;;;5.50;1.52;;;;;;;;;;5088647;28;20036;-86
2022/06/01 08:53:40;;;;;;;3.30;1.30;;;;;;;;;;5093489;28;20036;-86
2022/06/01 08:56:14;;;;;;;3.70;1.40;;;;;;;;;;5090574;28;20056;-85
2022/06/01 08:59:04;;;;;;;3.10;1.25;;;;;;;;;;5087039;28;20026;-86
2022/06/01 09:01:39;;;;;;;2.55;1.20;;;;;;;;;;5080968;28;20032;-86
2022/06/01 09:04:22;;;;;;;4.38;1.30;;;;;;;;;;5084429;28;20037;-85
2022/06/01 09:07:11;;;;;;;5.95;1.55;;;;;;;;;;5080178;28;20060;-86
2022/06/01 09:09:49;;;;;;;3.35;1.40;;;;;;;;;;5074307;28;20113;-86
2022/06/01 09:12:14;;;;;;;3.88;1.60;;;;;;;;;;5079500;28;20111;-86
2022/06/01 09:14:44;;;;;;;1.98;1.40;;;;;;;;;;5077238;28;20064;-85
2022/06/01 09:17:09;;;;;;;3.10;1.40;;;;;;;;;;5079407;28;20028;-85
2022/06/01 09:22:40;;;;;;;2.35;1.20;;;;;;;;;;5075681;28;20028;-86
2022/06/01 09:25:14;;;;;;;3.72;1.58;;;;;;;;;;5078151;28;20033;-86
2022/06/01 09:27:53;;;;;;;3.83;1.40;;;;;;;;;;5079127;28;20051;-86
2022/06/01 09:30:22;;;;;;;3.85;1.40;;;;;;;;;;5078063;28;20064;-86
2022/06/01 09:33:14;;;;;;;4.13;1.73;;;;;;;;;;5060805;28;20056;-86
2022/06/01 09:36:09;;;;;;;5.70;1.50;;;;;;;;;;5077903;28;20032;-85
2022/06/01 09:38:46;;;;;;;6.03;1.80;;;;;;;;;;5078707;28;20037;-86
2022/06/01 09:41:36;;;;;;;4.35;1.38;;;;;;;;;;5078010;28;20032;-86
2022/06/01 09:44:04;;;;;;;4.10;1.25;;;;;;;;;;5079427;28;20028;-86
2022/06/01 09:46:33;;;;;;;3.25;1.38;;;;;;;;;;5077580;28;20492;-86
2022/06/01 09:49:02;;;;;;;4.70;1.40;;;;;;;;;;5077496;28;20055;-85
2022/06/01 09:51:29;;;;;;;2.05;1.30;;;;;;;;;;5076582;28;20028;-86
2022/06/01 09:54:14;;;;;;;3.65;1.52;;;;;;;;;;5077617;28;20478;-86
2022/06/01 09:56:45;;;;;;;3.92;1.48;;;;;;;;;;5077028;28;20047;-85
2022/06/01 10:07:43;;;;;;;3.35;1.40;;;;;;;;;;5075931;28;20044;-85
2022/06/01 10:10:22;;;;;;;1.90;1.30;;;;;;;;;;5075272;28;20072;-86
2022/06/01 10:12:53;;;;;;;3.08;1.40;;;;;;;;;;5058526;28;20036;-85
2022/06/01 10:15:23;;;;;;;2.30;1.40;;;;;;;;;;5058213;28;20032;-85
2022/06/01 10:17:55;;;;;;;2.72;1.40;;;;;;;;;;5058983;28;20036;-85
2022/06/01 10:20:30;;;;;;;2.72;1.50;;;;;;;;;;5076875;28;20036;-85
2022/06/01 10:23:04;;;;;;;5.05;1.92;;;;;;;;;;5075079;28;20041;-85
2022/06/01 10:25:37;;;;;;;3.35;1.33;;;;;;;;;;5085878;28;20042;-89
2022/06/01 10:28:12;;;;;;;2.63;1.38;;;;;;;;;;5095811;28;20047;-86
2022/06/01 10:30:40;;;;;;;2.70;1.35;;;;;;;;;;5096874;28;20040;-85
2022/06/01 10:33:12;;;;;;;5.45;1.50;;;;;;;;;;5056266;28;20044;-85
2022/06/01 10:35:46;;;;;;;4.00;1.40;;;;;;;;;;5053601;28;20045;-84
2022/06/01 10:38:26;;;;;;;3.63;1.40;;;;;;;;;;5036814;28;20024;-84
2022/06/01 10:41:02;;;;;;;2.33;1.30;;;;;;;;;;5055308;28;20044;-84
2022/06/01 10:44:02;;;;;;;3.08;1.38;;;;;;;;;;5054973;28;20037;-85
2022/06/01 10:46:59;;;;;;;5.97;1.40;;;;;;;;;;5054668;28;20111;-84
2022/06/01 10:49:48;;;;;;;1.70;1.20;;;;;;;;;;5054487;28;20114;-84
2022/06/01 10:52:19;;;;;;;5.28;1.38;;;;;;;;;;5054498;28;20029;-84
2022/06/01 10:55:12;;;;;;;5.35;1.40;;;;;;;;;;5052384;28;20029;-84
2022/06/01 10:57:42;;;;;;;3.83;1.40;;;;;;;;;;5054738;28;20144;-84
2022/06/01 11:00:12;;;;;;;2.50;1.40;;;;;;;;;;5053463;28;20132;-85
2022/06/01 11:02:56;;;;;;;3.22;1.75;;;;;;;;;;5052916;28;20041;-84
2022/06/01 11:05:37;;;;;;;3.15;1.30;;;;;;;;;;5053670;28;20025;-84
2022/06/01 11:08:05;;;;;;;2.90;1.35;;;;;;;;;;5053217;28;20090;-84
2022/06/01 11:10:40;;;;;;;3.28;1.30;;;;;;;;;;5054074;28;20159;-84
2022/06/01 11:13:13;;;;;;;3.60;1.50;;;;;;;;;;5053446;28;20041;-84
2022/06/01 11:15:47;;;;;;;2.90;1.55;;;;;;;;;;5052381;28;20492;-84
2022/06/01 11:18:26;;;;;;;2.72;1.40;;;;;;;;;;5052959;28;20044;-84
2022/06/01 11:21:09;;;;;;;2.40;1.50;;;;;;;;;;5053643;28;20082;-84
2022/06/01 11:23:50;;;;;;;3.63;1.60;;;;;;;;;;5053150;28;20116;-89
2022/06/01 11:26:53;;;;;;;6.20;1.50;;;;;;;;;;5066095;28;20036;-84
2022/06/01 11:29:25;;;;;;;2.15;1.30;;;;;;;;;;5078897;28;20115;-85
2022/06/01 11:31:54;;;;;;;4.63;1.25;;;;;;;;;;5076462;28;20320;-85
2022/06/01 11:34:26;;;;;;;3.17;1.65;;;;;;;;;;5091704;28;20012;-85
2022/06/01 11:37:09;;;;;;;2.60;1.30;;;;;;;;;;5093374;28;20035;-84
2022/06/01 11:39:49;;;;;;;4.78;1.23;;;;;;;;;;5094214;28;20032;-84
2022/06/01 11:42:23;;;;;;;2.67;1.42;;;;;;;;;;5119555;22;20498;-87
2022/06/01 11:44:59;;;;;;;1.85;1.30;;;;;;;;;;5085084;28;20078;-89
2022/06/01 11:47:29;;;;;;;2.45;1.50;;;;;;;;;;5080858;28;20162;-88
2022/06/01 11:50:04;;;;;;;2.78;1.42;;;;;;;;;;5079235;28;20395;-87
2022/06/01 11:52:41;;;;;;;2.95;1.30;;;;;;;;;;5078481;28;20036;-85
2022/06/01 11:55:23;;;;;;;2.40;1.50;;;;;;;;;;5081846;28;20040;-86
2022/06/01 11:58:04;;;;;;;5.38;1.50;;;;;;;;;;5062685;28;20048;-87
2022/06/01 12:00:35;;;;;;;2.03;1.30;;;;;;;;;;5065304;28;20170;-87
2022/06/01 12:03:16;;;;;;;2.97;1.50;;;;;;;;;;5099478;28;20065;-87
2022/06/01 12:06:01;;;;;;;5.03;1.45;;;;;;;;;;5099259;28;20187;-86
2022/06/01 12:08:50;;;;;;;2.20;1.27;;;;;;;;;;5100411;28;20036;-87
2022/06/01 12:11:45;;;;;;;3.53;1.50;;;;;;;;;;5084349;28;20051;-86
2022/06/01 12:14:31;;;;;;;4.18;1.50;;;;;;;;;;5095939;28;20039;-87
2022/06/01 12:17:15;;;;;;;2.40;1.40;;;;;;;;;;5099648;28;20481;-87
2022/06/01 12:19:45;;;;;;;2.65;1.50;;;;;;;;;;5100162;28;20035;-86
2022/06/01 12:28:31;;;;;;;3.13;1.42;;;;;;;;;;5098874;28;20031;-87
2022/06/01 12:28:34;;;;;;;4.53;1.30;;;;;;;;;;5098366;28;20035;-87
2022/06/01 12:31:20;;;;;;;3.17;1.38;;;;;;;;;;5098379;28;20404;-87
2022/06/01 12:34:02;;;;;;;5.90;1.33;;;;;;;;;;5097289;28;20044;-87
2022/06/01 12:36:52;;;;;;;3.20;1.15;;;;;;;;;;5098440;28;20074;-87
2022/06/01 12:39:23;;;;;;;4.03;1.60;;;;;;;;;;5057572;28;20099;-88
2022/06/01 12:41:52;;;;;;;1.58;1.27;;;;;;;;;;5103829;28;20027;-88
2022/06/01 12:44:20;;;;;;;1.88;1.27;;;;;;;;;;5097996;28;20404;-87
2022/06/01 12:46:51;;;;;;;2.53;1.40;;;;;;;;;;5098220;28;20047;-87
2022/06/01 12:49:30;;;;;;;3.53;1.58;;;;;;;;;;5097363;28;20032;-87
2022/06/01 12:52:07;;;;;;;2.63;1.63;;;;;;;;;;5098015;28;20063;-88
2022/06/01 12:54:41;;;;;;;2.72;1.40;;;;;;;;;;5100228;28;20032;-88
2022/06/01 12:57:12;;;;;;;4.28;1.42;;;;;;;;;;5098212;28;20044;-87
2022/06/01 12:59:39;;;;;;;3.45;1.65;;;;;;;;;;5098208;28;20036;-87
2022/06/01 13:02:10;;;;;;;5.20;1.60;;;;;;;;;;5097647;28;20046;-87
2022/06/01 13:04:36;;;;;;;3.05;1.50;;;;;;;;;;5087349;28;20488;-86
2022/06/01 13:07:02;;;;;;;3.22;1.40;;;;;;;;;;5087913;28;20020;-85
2022/06/01 13:09:30;;;;;;;3.25;1.50;;;;;;;;;;5088252;28;20516;-86
2022/06/01 13:12:06;;;;;;;3.67;1.50;;;;;;;;;;5086697;28;20509;-87
2022/06/01 13:14:35;;;;;;;4.30;1.75;;;;;;;;;;5086396;28;20645;-87
2022/06/01 13:17:18;;;;;;;4.40;1.50;;;;;;;;;;5063868;28;20033;-88
2022/06/01 13:19:57;;;;;;;3.00;1.60;;;;;;;;;;5086739;28;20551;-88
2022/06/01 13:22:30;;;;;;;4.70;1.42;;;;;;;;;;5096134;28;20381;-87
2022/06/01 13:25:03;;;;;;;3.97;1.50;;;;;;;;;;5097022;28;20032;-86
2022/06/01 13:27:29;;;;;;;;;;;;;;;;;;5079782;28;20483;-85
2022/06/01 13:29:59;;;;;;;3.63;1.40;;;;;;;;;;5096472;28;20399;-86
2022/06/01 13:32:34;;;;;;;2.97;1.50;;;;;;;;;;5101075;28;20039;-88
2022/06/01 13:35:19;;;;;;;2.25;1.35;;;;;;;;;;5096970;28;20036;-87
2022/06/01 13:37:45;;;;;;;5.38;1.67;;;;;;;;;;5104956;28;20488;-87
2022/06/01 13:40:23;;;;;;;5.13;1.67;;;;;;;;;;5098583;28;20036;-87
2022/06/01 13:42:58;;;;;;;5.93;1.65;;;;;;;;;;5096260;28;20040;-86
2022/06/01 13:45:38;;;;;;;3.67;1.67;;;;;;;;;;5098713;28;20088;-87
2022/06/01 13:48:30;;;;;;;3.15;1.30;;;;;;;;;;5098786;28;20028;-87
2022/06/01 13:50:59;;;;;;;4.03;1.60;;;;;;;;;;5098996;28;20096;-88
2022/06/01 13:53:39;;;;;;;2.30;1.67;;;;;;;;;;5098152;28;20063;-88
2022/06/01 13:56:21;;;;;;;3.22;1.52;;;;;;;;;;5098068;28;20036;-87
2022/06/01 13:59:09;;;;;;;3.22;1.58;;;;;;;;;;5097770;28;20035;-86
2022/06/01 14:01:34;;;;;;;3.13;1.60;;;;;;;;;;5097918;28;20031;-87
2022/06/01 14:04:11;;;;;;;5.65;2.10;;;;;;;;;;5098050;28;20534;-88
2022/06/01 14:06:52;;;;;;;2.72;1.55;;;;;;;;;;5080587;28;20039;-87
2022/06/01 14:09:23;;;;;;;6.10;1.80;;;;;;;;;;5095944;28;20036;-86
2022/06/01 14:11:49;;;;;;;3.72;1.58;;;;;;;;;;5078270;28;20043;-88
2022/06/01 14:14:23;;;;;;;2.92;1.45;;;;;;;;;;5077727;28;20052;-89
2022/06/01 14:16:52;;;;;;;5.97;1.70;;;;;;;;;;5076693;28;20088;-87
2022/06/01 14:19:17;;;;;;;5.30;1.40;;;;;;;;;;5083674;28;20044;-87
2022/06/01 14:21:43;;;;;;;7.10;1.60;;;;;;;;;;5092438;28;20036;-86
2022/06/01 14:24:08;;;;;;;3.17;1.50;;;;;;;;;;5091512;28;20497;-87
2022/06/01 14:29:18;;;;;;;1.77;1.48;;;;;;;;;;5095815;28;20059;-86
2022/06/01 14:31:44;;;;;;;3.67;1.48;;;;;;;;;;5100986;28;20031;-87
2022/06/01 14:34:12;;;;;;;3.70;1.60;;;;;;;;;;5096250;28;20036;-87
2022/06/01 14:36:38;;;;;;;2.70;1.40;;;;;;;;;;5094578;28;20028;-87
2022/06/01 14:39:05;;;;;;;3.28;1.60;;;;;;;;;;5076933;28;20060;-87
2022/06/01 14:41:32;;;;;;;3.15;1.42;;;;;;;;;;5074214;28;20032;-87
2022/06/01 14:44:06;;;;;;;1.40;1.30;;;;;;;;;;5078244;28;20064;-85
2022/06/01 14:46:33;;;;;;;2.88;1.40;;;;;;;;;;5079169;28;20033;-88
2022/06/01 14:48:58;;;;;;;2.17;1.50;;;;;;;;;;5078932;28;20069;-88
2022/06/01 14:51:31;;;;;;;4.65;1.83;;;;;;;;;;5077867;28;20032;-87
2022/06/01 14:53:59;;;;;;;2.58;1.58;;;;;;;;;;5079777;28;20093;-89
2022/06/01 14:56:25;;;;;;;2.47;1.48;;;;;;;;;;5060467;28;20029;-88
2022/06/01 14:58:50;;;;;;;3.67;1.60;;;;;;;;;;5078105;28;20394;-90
2022/06/01 15:01:25;;;;;;;3.90;1.67;;;;;;;;;;5082315;28;20028;-88
2022/06/01 15:03:50;;;;;;;3.78;1.90;;;;;;;;;;5075141;28;20040;-88
2022/06/01 15:06:17;;;;;;;3.53;1.92;;;;;;;;;;5062516;28;20025;-87
2022/06/01 15:08:42;;;;;;;9.32;5.03;;;;;;;;;;5068896;28;20041;-87
2022/06/01 15:11:09;;;;;;;11.02;2.50;;;;;;;;;;5076422;28;20143;-88
2022/06/01 15:13:35;;;;;;;3.85;1.90;;;;;;;;;;5075400;28;20569;-88
2022/06/01 15:16:01;;;;;;;3.75;1.80;;;;;;;;;;5051650;28;20046;-89
2022/06/01 15:18:27;;;;;;;4.20;1.77;;;;;;;;;;5045159;28;20055;-88
2022/06/01 15:20:52;;;;;;;6.93;2.70;;;;;;;;;;5064320;28;20033;-85
2022/06/01 15:23:19;;;;;;;5.85;1.70;;;;;;;;;;5068269;28;20017;-85
2022/06/01 15:25:45;;;;;;;4.82;2.20;;;;;;;;;;5057517;28;20104;-86
2022/06/01 15:28:11;;;;;;;6.88;4.00;;;;;;;;;;5061444;28;20067;-86
2022/06/01 15:41:35;;;;;;;7.93;2.40;;;;;;;;;;5078879;28;20435;-87
2022/06/01 15:44:00;;;;;;;3.80;2.13;;;;;;;;;;5077505;28;20028;-86